Time;durP1;ratioP1;P1;durP2;ratioP2;P2;SDS_P1;SDS_P2;PMS_P1;PMS_P2;Temp;Humidity;BMP_temperature;BMP_pressure;BME280_temperature;BME280_humidity;BME280_pressure;Samples;Min_cycle;Max_cycle;Signal;HPM_P1;HPM_P2
2024/02/03 00:00:05;;;;;;;34.78;7.95;;;;;;;7.91;100.00;101070.06;4989587;28;20811;-80
2024/02/03 00:02:31;;;;;;;37.17;9.10;;;;;;;7.84;100.00;101061.78;5005260;28;20033;-78
2024/02/03 00:04:57;;;;;;;37.55;8.52;;;;;;;7.86;100.00;101073.13;4974261;28;20512;-78
2024/02/03 00:07:22;;;;;;;29.45;7.38;;;;;;;7.88;100.00;101081.81;4984563;28;20049;-80
2024/02/03 00:09:47;;;;;;;25.33;8.73;;;;;;;7.89;100.00;101061.38;5009893;28;20045;-80
2024/02/03 00:12:13;;;;;;;42.70;10.93;;;;;;;7.71;100.00;101070.03;4983449;28;20370;-80
2024/02/03 00:14:39;;;;;;;36.53;9.35;;;;;;;7.77;100.00;101076.63;4992834;28;20089;-80
2024/02/03 00:17:04;;;;;;;33.45;9.20;;;;;;;7.89;100.00;101056.94;5005660;28;20401;-80
2024/02/03 00:19:30;;;;;;;22.00;7.13;;;;;;;7.84;100.00;101064.47;4981171;28;20077;-77
2024/02/03 00:21:56;;;;;;;29.13;8.07;;;;;;;7.83;100.00;101046.84;4976029;28;20049;-79
2024/02/03 00:24:22;;;;;;;31.42;8.88;;;;;;;7.92;100.00;101051.34;5000599;28;20042;-79
2024/02/03 00:26:47;;;;;;;33.13;7.95;;;;;;;7.88;100.00;101043.78;5010007;28;20044;-79
2024/02/03 00:29:13;;;;;;;31.30;7.73;;;;;;;7.90;100.00;101055.94;4989028;28;20499;-80
2024/02/03 00:31:38;;;;;;;27.17;8.82;;;;;;;7.76;100.00;101030.59;4989456;28;20289;-79
2024/02/03 00:34:04;;;;;;;42.13;10.10;;;;;;;7.83;100.00;101047.69;5005162;28;20390;-77
2024/02/03 00:36:30;;;;;;;23.93;8.43;;;;;;;7.93;100.00;101041.53;4979786;28;20037;-77
2024/02/03 00:38:55;;;;;;;32.73;10.83;;;;;;;7.90;100.00;101032.03;5001969;28;20315;-79
2024/02/03 00:41:20;;;;;;;42.15;9.65;;;;;;;7.92;100.00;101051.34;4985842;28;20141;-79
2024/02/03 00:43:46;;;;;;;35.23;10.53;;;;;;;7.91;100.00;101039.00;4980714;28;20049;-79
2024/02/03 00:46:11;;;;;;;29.15;9.00;;;;;;;8.01;100.00;101041.69;4996800;28;20130;-78
2024/02/03 00:48:39;;;;;;;35.57;10.17;;;;;;;7.98;100.00;101036.63;4979741;28;20066;-80
2024/02/03 00:51:12;;;;;;;31.45;8.90;;;;;;;8.06;100.00;101042.13;4994006;28;20101;-77
2024/02/03 00:53:43;;;;;;;24.92;7.13;;;;;;;7.97;100.00;101024.34;4992085;28;20055;-80
2024/02/03 00:56:10;;;;;;;35.65;8.77;;;;;;;8.20;100.00;101040.88;4977456;28;20485;-80
2024/02/03 00:58:35;;;;;;;37.78;7.70;;;;;;;8.22;100.00;101025.59;5004639;28;20038;-79
2024/02/03 01:01:00;;;;;;;38.60;9.33;;;;;;;8.18;100.00;101026.88;4994851;28;20038;-80
2024/02/03 01:03:26;;;;;;;41.00;8.53;;;;;;;8.11;100.00;101004.47;4995180;28;20292;-78
2024/02/03 01:05:52;;;;;;;23.63;7.18;;;;;;;8.24;100.00;101005.00;5004473;28;20048;-80
2024/02/03 01:08:18;;;;;;;29.38;8.65;;;;;;;8.27;100.00;101006.56;5000123;28;20053;-81
2024/02/03 01:10:43;;;;;;;32.13;8.18;;;;;;;8.25;100.00;100988.91;5003026;28;20034;-80
2024/02/03 01:13:09;;;;;;;31.83;7.30;;;;;;;8.22;100.00;100989.22;4996663;28;20026;-79
2024/02/03 01:15:35;;;;;;;26.60;7.13;;;;;;;8.24;100.00;101002.34;4996302;28;20026;-77
2024/02/03 01:18:03;;;;;;;21.73;7.30;;;;;;;8.28;100.00;100985.13;4993099;28;20520;-79
2024/02/03 01:20:29;;;;;;;36.97;7.20;;;;;;;8.24;100.00;100986.38;4995014;28;20030;-79
2024/02/03 01:22:54;;;;;;;41.17;8.70;;;;;;;8.15;100.00;100988.09;5001550;28;20211;-77
2024/02/03 01:25:19;;;;;;;35.97;7.80;;;;;;;8.25;100.00;100998.72;4977544;28;20041;-78
2024/02/03 01:27:45;;;;;;;34.03;8.77;;;;;;;8.23;100.00;100998.84;5010261;28;20050;-78
2024/02/03 01:30:10;;;;;;;28.43;7.23;;;;;;;8.25;100.00;100993.41;4975750;28;20293;-78
2024/02/03 01:32:36;;;;;;;27.77;7.47;;;;;;;8.19;100.00;100972.69;5000637;28;20301;-78
2024/02/03 01:35:02;;;;;;;17.10;7.13;;;;;;;8.16;100.00;100988.94;5004369;28;20089;-77
2024/02/03 01:37:27;;;;;;;30.98;8.18;;;;;;;8.27;100.00;100991.44;4994464;28;20038;-80
2024/02/03 01:39:53;;;;;;;31.47;8.90;;;;;;;8.27;100.00;101004.75;5008593;28;20040;-80
2024/02/03 01:42:18;;;;;;;37.28;8.25;;;;;;;8.17;100.00;100998.56;4997286;28;20272;-78
2024/02/03 01:44:44;;;;;;;25.37;7.10;;;;;;;8.32;100.00;101010.47;4982492;28;20347;-79
2024/02/03 01:47:10;;;;;;;34.53;7.43;;;;;;;8.33;100.00;101006.81;4994133;28;20034;-77
2024/02/03 01:49:36;;;;;;;42.30;8.98;;;;;;;8.28;100.00;101008.22;4993741;28;20046;-79
2024/02/03 01:52:02;;;;;;;29.58;7.50;;;;;;;8.38;100.00;101020.56;4990196;28;20041;-80
2024/02/03 01:54:28;;;;;;;30.90;9.00;;;;;;;8.29;100.00;100994.81;4994095;28;20042;-78
2024/02/03 01:56:57;;;;;;;26.50;7.20;;;;;;;8.35;100.00;101033.28;4998793;28;20489;-78
2024/02/03 01:59:24;;;;;;;30.88;7.20;;;;;;;8.24;100.00;101013.84;4998034;28;20642;-79
2024/02/03 02:01:50;;;;;;;31.23;10.80;;;;;;;8.29;100.00;101033.84;4993336;28;20861;-77
2024/02/03 02:04:16;;;;;;;35.55;7.82;;;;;;;8.34;100.00;101055.56;4990195;28;20043;-78
2024/02/03 02:06:42;;;;;;;36.58;8.52;;;;;;;8.33;100.00;101033.41;4992434;28;20469;-79
2024/02/03 02:09:07;;;;;;;34.13;7.83;;;;;;;8.30;100.00;101039.03;4975763;28;20062;-78
2024/02/03 02:11:33;;;;;;;32.10;7.35;;;;;;;8.25;100.00;101036.78;4991756;28;20066;-77
2024/02/03 02:13:58;;;;;;;20.17;7.75;;;;;;;8.31;100.00;101042.53;4993835;28;20030;-79
2024/02/03 02:16:24;;;;;;;32.00;7.97;;;;;;;8.38;100.00;101049.81;4999564;28;20030;-78
2024/02/03 02:18:50;;;;;;;37.33;7.90;;;;;;;8.38;100.00;101028.53;5007273;28;20504;-78
2024/02/03 02:21:16;;;;;;;26.33;7.82;;;;;;;8.33;100.00;101029.94;4997508;28;20029;-79
2024/02/03 02:23:42;;;;;;;36.67;8.13;;;;;;;8.42;100.00;101037.09;4999821;28;20077;-79
2024/02/03 02:26:08;;;;;;;38.77;8.70;;;;;;;8.31;100.00;101029.22;4993687;28;20498;-79
2024/02/03 02:28:34;;;;;;;32.83;9.05;;;;;;;8.34;100.00;101034.28;4975137;28;20084;-78
2024/02/03 02:30:59;;;;;;;38.22;8.70;;;;;;;8.28;100.00;101034.84;4976576;28;20042;-76
2024/02/03 02:33:25;;;;;;;40.10;9.03;;;;;;;8.31;100.00;101030.09;5009419;23;20116;-88
2024/02/03 02:35:50;;;;;;;35.37;7.33;;;;;;;8.25;100.00;101023.50;4995424;28;20038;-88
2024/02/03 02:38:19;;;;;;;34.38;9.35;;;;;;;8.27;100.00;101039.31;5007599;28;20385;-89
2024/02/03 02:40:45;;;;;;;35.00;8.02;;;;;;;8.27;100.00;101035.84;4997801;28;20034;-88
2024/02/03 02:43:10;;;;;;;31.83;7.97;;;;;;;8.23;100.00;101043.22;4986275;28;20034;-89
2024/02/03 02:45:38;;;;;;;22.27;6.97;;;;;;;8.20;100.00;101048.84;5004451;28;20231;-88
2024/02/03 02:48:04;;;;;;;31.98;8.02;;;;;;;8.15;100.00;101051.09;4999807;28;20292;-89
2024/02/03 02:50:30;;;;;;;31.25;8.70;;;;;;;8.11;100.00;101045.19;4982470;28;20502;-88
2024/02/03 02:53:00;;;;;;;37.80;9.77;;;;;;;8.25;100.00;101051.91;4999689;28;20053;-87
2024/02/03 02:55:25;;;;;;;28.30;8.35;;;;;;;8.19;100.00;101033.84;4998466;28;20037;-88
2024/02/03 02:57:51;;;;;;;27.83;7.47;;;;;;;8.21;100.00;101045.19;4988672;28;20044;-88
2024/02/03 03:00:17;;;;;;;33.53;7.90;;;;;;;8.27;100.00;101036.66;4985196;28;20069;-88
2024/02/03 03:02:43;;;;;;;29.55;7.90;;;;;;;8.21;100.00;101051.34;4986724;28;20053;-88
2024/02/03 03:05:11;;;;;;;37.00;8.50;;;;;;;8.25;100.00;101035.97;4988887;28;20439;-88
2024/02/03 03:07:38;;;;;;;30.50;8.23;;;;;;;8.36;100.00;101056.28;4986950;28;20283;-89
2024/02/03 03:10:03;;;;;;;26.27;7.53;;;;;;;8.32;100.00;101041.56;5003783;28;20128;-88
2024/02/03 03:12:29;;;;;;;39.78;9.50;;;;;;;8.24;100.00;101031.59;4985034;28;20184;-89
2024/02/03 03:14:54;;;;;;;32.13;7.77;;;;;;;8.32;100.00;101041.56;5001261;28;20042;-88
2024/02/03 03:17:19;;;;;;;26.93;7.53;;;;;;;8.35;100.00;101036.78;4984829;28;20053;-88
2024/02/03 03:19:45;;;;;;;30.47;8.73;;;;;;;8.22;100.00;101009.66;4988756;28;20060;-89
2024/02/03 03:22:11;;;;;;;32.80;10.13;;;;;;;8.25;100.00;101020.00;4980725;28;20138;-88
2024/02/03 03:24:37;;;;;;;27.15;8.63;;;;;;;8.36;100.00;101022.53;4986366;28;20340;-89
2024/02/03 03:27:02;;;;;;;29.73;7.77;;;;;;;8.35;100.00;101012.84;5000475;28;20029;-88
2024/02/03 03:29:28;;;;;;;31.87;6.40;;;;;;;8.32;100.00;101007.81;4998405;28;20053;-89
2024/02/03 03:31:53;;;;;;;29.42;8.43;;;;;;;8.23;100.00;100998.03;5005634;28;20344;-89
2024/02/03 03:34:19;;;;;;;23.70;7.47;;;;;;;8.20;100.00;101011.59;4988624;28;20048;-88
2024/02/03 03:36:44;;;;;;;36.45;8.10;;;;;;;8.31;100.00;101015.94;5001150;28;20408;-90
2024/02/03 03:39:09;;;;;;;27.80;7.97;;;;;;;8.14;100.00;100997.03;5003543;28;20080;-88
2024/02/03 03:41:35;;;;;;;34.57;8.70;;;;;;;8.23;100.00;101011.31;4985438;28;20477;-88
2024/02/03 03:44:00;;;;;;;32.17;7.07;;;;;;;8.27;100.00;101011.88;5005105;28;20488;-89
2024/02/03 03:46:25;;;;;;;30.30;8.80;;;;;;;8.30;100.00;101016.91;4987766;28;20201;-90
2024/02/03 03:48:51;;;;;;;33.57;7.33;;;;;;;8.27;100.00;101006.56;5005025;28;20084;-88
2024/02/03 03:51:16;;;;;;;28.13;7.00;;;;;;;8.26;100.00;101008.38;4989291;28;20100;-89
2024/02/03 03:53:54;;;;;;;29.57;7.80;;;;;;;8.22;100.00;101004.34;4997417;28;20026;-89
2024/02/03 03:56:20;;;;;;;40.25;9.55;;;;;;;8.33;100.00;101020.13;5000625;28;20080;-88
2024/02/03 03:58:46;;;;;;;30.17;7.30;;;;;;;8.27;100.00;101011.88;5005152;28;20500;-89
2024/02/03 04:01:11;;;;;;;31.25;7.57;;;;;;;8.33;100.00;101017.47;4998798;28;20057;-89
2024/02/03 04:03:37;;;;;;;34.40;9.40;;;;;;;8.27;100.00;101020.69;4995208;28;20049;-88
2024/02/03 04:06:02;;;;;;;38.13;8.73;;;;;;;8.21;100.00;101010.63;4988017;28;20038;-88
2024/02/03 04:08:27;;;;;;;39.92;8.80;;;;;;;8.16;100.00;101010.19;4988358;28;20072;-89
2024/02/03 04:10:53;;;;;;;35.47;8.17;;;;;;;8.13;100.00;101015.81;5002086;28;20027;-88
2024/02/03 04:13:20;;;;;;;39.50;8.48;;;;;;;8.22;100.00;101025.59;4984596;28;20038;-89
2024/02/03 04:15:45;;;;;;;27.65;8.18;;;;;;;8.11;100.00;101018.59;4986910;28;20049;-89
2024/02/03 04:18:11;;;;;;;37.57;8.47;;;;;;;8.24;100.00;101023.63;5003655;28;20037;-89
2024/02/03 04:20:36;;;;;;;30.40;7.17;;;;;;;8.31;100.00;101030.09;4986476;28;20640;-89
2024/02/03 04:23:01;;;;;;;35.83;8.87;;;;;;;8.33;100.00;101021.94;4999735;28;20050;-89
2024/02/03 04:25:27;;;;;;;22.93;6.97;;;;;;;8.32;100.00;100999.84;4989063;28;20375;-89
2024/02/03 04:27:52;;;;;;;30.60;9.27;;;;;;;8.29;100.00;101002.78;4987855;28;20046;-88
2024/02/03 04:30:19;;;;;;;42.00;9.90;;;;;;;8.25;100.00;100982.75;5004711;28;20038;-88
2024/02/03 04:32:45;;;;;;;35.60;8.55;;;;;;;8.24;100.00;100997.03;4997522;28;20618;-88
2024/02/03 04:35:10;;;;;;;33.83;7.72;;;;;;;8.24;100.00;100997.03;5005507;28;20026;-89
2024/02/03 04:37:36;;;;;;;34.55;8.10;;;;;;;8.30;100.00;100991.16;4988895;28;20030;-89
2024/02/03 04:40:02;;;;;;;34.27;7.57;;;;;;;8.19;100.00;100984.19;5015183;28;20029;-88
2024/02/03 04:42:27;;;;;;;26.83;7.70;;;;;;;8.28;100.00;100977.16;5027795;28;20030;-87
2024/02/03 04:44:53;;;;;;;31.57;8.23;;;;;;;8.36;100.00;100974.63;5001408;28;20038;-90
2024/02/03 04:47:18;;;;;;;25.80;8.15;;;;;;;8.31;100.00;100966.25;5004797;28;20543;-89
2024/02/03 04:49:43;;;;;;;31.93;8.10;;;;;;;8.41;100.00;100976.91;4996411;28;20985;-88
2024/02/03 04:52:09;;;;;;;23.70;8.07;;;;;;;8.42;100.00;100973.25;4984331;28;20488;-88
2024/02/03 04:54:34;;;;;;;29.30;7.63;;;;;;;8.40;100.00;100973.38;4988800;28;20037;-89
2024/02/03 04:57:00;;;;;;;36.28;7.63;;;;;;;8.38;100.00;100983.31;5006082;28;20037;-88
2024/02/03 04:59:25;;;;;;;33.05;7.40;;;;;;;8.34;100.00;100971.28;4998561;28;20026;-88
2024/02/03 05:01:51;;;;;;;37.90;8.70;;;;;;;8.38;100.00;100958.50;5007534;28;20060;-89
2024/02/03 05:04:16;;;;;;;30.17;8.77;;;;;;;8.32;100.00;100961.75;4991386;28;20041;-89
2024/02/03 05:06:41;;;;;;;27.50;7.37;;;;;;;8.42;100.00;100955.44;5000087;28;20038;-88
2024/02/03 05:09:08;;;;;;;35.30;9.00;;;;;;;8.39;100.00;100955.72;4996833;28;20507;-89
2024/02/03 05:11:33;;;;;;;36.78;6.97;;;;;;;8.52;100.00;100967.91;4990190;28;20060;-89
2024/02/03 05:13:59;;;;;;;27.80;6.28;;;;;;;8.59;100.00;100961.00;4983995;28;20125;-88
2024/02/03 05:16:26;;;;;;;24.03;5.80;;;;;;;8.50;100.00;100949.44;4991371;28;20551;-88
2024/02/03 05:19:04;;;;;;;33.47;7.63;;;;;;;8.62;100.00;100952.75;5004758;28;20038;-88
2024/02/03 05:21:30;;;;;;;32.00;6.55;;;;;;;8.59;100.00;100942.38;5004252;28;20499;-88
2024/02/03 05:23:55;;;;;;;32.15;6.32;;;;;;;8.53;100.00;100933.16;4982341;28;20508;-89
2024/02/03 05:26:21;;;;;;;21.55;5.45;;;;;;;8.59;100.00;100947.72;4985395;28;20041;-88
2024/02/03 05:28:46;;;;;;;32.53;5.57;;;;;;;8.59;100.00;100932.59;4998934;28;20022;-89
2024/02/03 05:31:18;;;;;;;22.97;6.50;;;;;;;8.53;100.00;100925.19;5003873;28;20489;-89
2024/02/03 05:33:44;;;;;;;24.48;8.05;;;;;;;8.60;100.00;100922.78;5004643;28;20497;-87
2024/02/03 05:36:09;;;;;;;33.70;6.50;;;;;;;8.63;100.00;100938.47;5001708;28;20065;-89
2024/02/03 05:38:34;;;;;;;25.27;5.20;;;;;;;8.55;100.00;100927.72;4990832;28;20041;-88
2024/02/03 05:41:00;;;;;;;28.20;5.43;;;;;;;8.64;100.00;100929.50;5002021;28;20522;-89
2024/02/03 05:43:25;;;;;;;28.93;7.07;;;;;;;8.63;100.00;100917.16;4979016;28;20485;-90
2024/02/03 05:45:50;;;;;;;24.90;6.63;;;;;;;8.69;100.00;100932.56;4983846;28;20103;-89
2024/02/03 05:48:16;;;;;;;25.30;5.93;;;;;;;8.54;100.00;100907.38;4988067;28;20045;-90
2024/02/03 05:50:41;;;;;;;26.00;5.50;;;;;;;8.58;100.00;100924.75;4996834;28;20049;-89
2024/02/03 05:53:06;;;;;;;24.90;6.23;;;;;;;8.64;100.00;100914.38;5001094;28;20041;-89
2024/02/03 05:55:32;;;;;;;29.00;6.30;;;;;;;8.63;100.00;100925.16;4993968;28;20072;-89
2024/02/03 05:57:57;;;;;;;27.97;6.53;;;;;;;8.68;100.00;100924.72;5005790;28;20273;-89
2024/02/03 06:00:22;;;;;;;22.57;4.87;;;;;;;8.57;100.00;100899.97;4994059;28;20526;-90
2024/02/03 06:02:48;;;;;;;22.30;5.50;;;;;;;8.69;100.00;100921.09;4994777;28;20034;-88
2024/02/03 06:05:15;;;;;;;19.25;4.82;;;;;;;8.70;100.00;100918.25;4993455;28;20041;-90
2024/02/03 06:07:41;;;;;;;30.55;5.28;;;;;;;8.68;100.00;100908.75;4993816;28;20054;-89
2024/02/03 06:10:07;;;;;;;25.90;5.80;;;;;;;8.63;100.00;100901.19;5010057;28;20066;-89
2024/02/03 06:12:32;;;;;;;26.63;4.60;;;;;;;8.63;100.00;100893.22;5010452;28;20038;-89
2024/02/03 06:14:57;;;;;;;18.47;3.57;;;;;;;8.68;100.00;100898.94;5009922;28;20041;-89
2024/02/03 06:17:23;;;;;;;30.53;5.60;;;;;;;8.72;100.00;100910.13;4990922;28;20074;-89
2024/02/03 06:19:48;;;;;;;29.93;5.33;;;;;;;8.62;100.00;100910.19;5010005;28;20088;-89
2024/02/03 06:22:14;;;;;;;27.87;5.13;;;;;;;8.69;100.00;100923.75;4993898;28;20034;-89
2024/02/03 06:24:39;;;;;;;13.23;3.95;;;;;;;8.70;100.00;100917.44;4990810;28;20664;-89
2024/02/03 06:27:05;;;;;;;16.07;4.13;;;;;;;8.82;100.00;100921.56;5007993;28;20041;-89
2024/02/03 06:29:30;;;;;;;19.92;3.63;;;;;;;8.80;100.00;100896.91;4988833;28;20129;-89
2024/02/03 06:31:56;;;;;;;16.58;4.25;;;;;;;8.88;100.00;100921.81;5004522;28;20065;-89
2024/02/03 06:34:21;;;;;;;23.50;7.70;;;;;;;8.76;100.00;100900.88;5009865;28;20065;-89
2024/02/03 06:36:46;;;;;;;22.50;5.27;;;;;;;8.86;100.00;100918.47;4993423;28;20034;-89
2024/02/03 06:39:12;;;;;;;22.73;6.20;;;;;;;8.89;100.00;100914.66;5008877;28;20073;-88
2024/02/03 06:41:37;;;;;;;29.43;4.37;;;;;;;8.91;100.00;100909.22;4992800;28;20091;-89
2024/02/03 06:44:03;;;;;;;27.05;4.38;;;;;;;8.85;100.00;100905.31;4993493;28;20076;-89
2024/02/03 06:46:28;;;;;;;17.80;4.05;;;;;;;8.78;100.00;100899.75;4993545;28;20128;-90
2024/02/03 06:48:54;;;;;;;21.40;3.77;;;;;;;8.77;100.00;100900.72;5003696;28;20026;-89
2024/02/03 06:51:19;;;;;;;20.40;4.57;;;;;;;8.70;100.00;100902.28;4993459;28;20030;-90
2024/02/03 06:53:44;;;;;;;32.03;5.03;;;;;;;8.75;100.00;100931.97;5002096;28;20018;-90
2024/02/03 06:56:52;;;;;;;20.07;4.87;;;;;;;8.72;100.00;100918.13;4992638;28;20855;-90
2024/02/03 06:59:18;;;;;;;25.70;6.28;;;;;;;8.79;100.00;100912.06;5009086;28;20459;-90
2024/02/03 07:01:43;;;;;;;22.60;3.90;;;;;;;8.71;100.00;100925.28;4993822;28;20022;-89
2024/02/03 07:04:09;;;;;;;25.23;4.20;;;;;;;8.76;100.00;100912.34;5001305;28;20045;-91
2024/02/03 07:06:34;;;;;;;28.05;3.47;;;;;;;8.86;100.00;100929.13;4989645;28;20497;-90
2024/02/03 07:08:59;;;;;;;31.20;5.73;;;;;;;8.82;100.00;100926.91;5009339;28;20077;-90
2024/02/03 07:11:25;;;;;;;26.63;4.40;;;;;;;8.82;100.00;100938.38;4992036;28;20061;-91
2024/02/03 07:13:50;;;;;;;20.07;3.33;;;;;;;8.92;100.00;100940.16;4989437;28;20037;-90
2024/02/03 07:16:15;;;;;;;17.77;3.73;;;;;;;8.86;100.00;100926.44;4999408;28;20073;-89
2024/02/03 07:18:41;;;;;;;25.27;7.33;;;;;;;8.82;100.00;100927.72;4986739;28;20085;-89
2024/02/03 07:21:06;;;;;;;21.23;3.47;;;;;;;8.88;100.00;100934.31;5005656;28;20378;-90
2024/02/03 07:23:31;;;;;;;24.50;5.17;;;;;;;8.87;100.00;100925.50;4987824;28;20130;-90
2024/02/03 07:25:57;;;;;;;24.83;4.50;;;;;;;8.92;100.00;100916.19;5007562;28;20048;-89
2024/02/03 07:28:23;;;;;;;34.63;4.85;;;;;;;8.76;100.00;100917.69;4992710;28;20029;-89
2024/02/03 07:30:48;;;;;;;22.17;4.17;;;;;;;8.83;100.00;100925.94;5001321;28;20049;-89
2024/02/03 07:33:14;;;;;;;39.37;4.27;;;;;;;8.84;100.00;100928.41;4995237;28;20069;-88
2024/02/03 07:35:39;;;;;;;17.48;3.90;;;;;;;8.80;100.00;100913.75;5008874;28;20022;-89
2024/02/03 07:38:04;;;;;;;16.03;3.67;;;;;;;8.90;100.00;100939.47;4995202;28;20038;-88
2024/02/03 07:40:30;;;;;;;19.53;5.17;;;;;;;8.83;100.00;100907.28;4992587;28;20049;-89
2024/02/03 07:42:55;;;;;;;17.57;5.13;;;;;;;8.95;100.00;100931.91;4992780;28;20030;-89
2024/02/03 07:45:20;;;;;;;24.77;4.03;;;;;;;8.94;100.00;100940.84;4988883;28;20104;-88
2024/02/03 07:47:46;;;;;;;26.67;5.60;;;;;;;9.00;100.00;100946.44;5004492;28;20038;-88
2024/02/03 07:50:11;;;;;;;24.70;4.43;;;;;;;8.97;100.00;100929.94;4992394;28;20041;-89
2024/02/03 07:52:37;;;;;;;25.00;5.30;;;;;;;8.81;100.00;100912.75;4992687;28;20033;-88
2024/02/03 07:55:03;;;;;;;23.90;4.93;;;;;;;8.99;100.00;100934.13;4994129;28;20037;-88
2024/02/03 07:57:29;;;;;;;22.05;3.55;;;;;;;9.03;100.00;100926.66;4989005;28;20054;-89
2024/02/03 07:59:55;;;;;;;20.13;4.78;;;;;;;8.95;100.00;100918.59;4988719;28;20065;-89
2024/02/03 08:02:20;;;;;;;14.57;4.20;;;;;;;9.00;100.00;100930.47;4987852;28;20021;-88
2024/02/03 08:04:45;;;;;;;27.73;4.63;;;;;;;9.03;100.00;100916.84;4999788;28;20029;-89
2024/02/03 08:07:11;;;;;;;26.57;8.80;;;;;;;8.87;100.00;100912.19;4988425;28;20030;-89
2024/02/03 08:09:36;;;;;;;27.13;4.20;;;;;;;8.93;100.00;100912.56;4987574;28;20095;-88
2024/02/03 08:12:04;;;;;;;30.07;5.60;;;;;;;9.01;100.00;100920.63;4999444;28;20030;-88
2024/02/03 08:14:29;;;;;;;21.17;4.28;;;;;;;8.98;100.00;100907.63;4982964;28;20060;-88
2024/02/03 08:16:55;;;;;;;22.23;3.90;;;;;;;8.93;100.00;100869.97;4993364;28;20062;-89
2024/02/03 08:19:21;;;;;;;25.67;5.97;;;;;;;8.96;100.00;100922.91;4988661;28;20035;-89
2024/02/03 08:22:16;;;;;;;12.45;4.07;;;;;;;9.00;100.00;100925.13;4988447;28;20116;-89
2024/02/03 08:24:42;;;;;;;25.73;4.78;;;;;;;8.88;100.00;100927.16;4971162;28;20042;-90
2024/02/03 08:27:07;;;;;;;23.83;4.37;;;;;;;9.06;100.00;100934.34;4994121;28;20076;-89
2024/02/03 08:29:33;;;;;;;21.13;5.00;;;;;;;8.99;100.00;100911.94;4993310;28;20350;-90
2024/02/03 08:31:58;;;;;;;25.57;4.80;;;;;;;9.05;100.00;100927.34;4985170;28;20033;-89
2024/02/03 08:34:23;;;;;;;20.27;4.27;;;;;;;8.99;100.00;100918.13;5012284;28;20033;-90
2024/02/03 08:36:49;;;;;;;20.73;5.83;;;;;;;8.98;100.00;100918.28;4996683;28;20121;-89
2024/02/03 08:39:14;;;;;;;18.30;4.03;;;;;;;9.06;100.00;100939.66;5023417;28;20034;-89
2024/02/03 08:45:52;;;;;;;29.95;4.93;;;;;;;9.10;100.00;100898.44;4912415;29;20084;-89
2024/02/03 08:48:17;;;;;;;20.85;3.10;;;;;;;9.08;100.00;100884.44;4895232;29;20047;-90
2024/02/03 08:50:43;;;;;;;20.65;4.18;;;;;;;9.24;100.00;100905.91;4975922;28;20120;-88
2024/02/03 08:53:08;;;;;;;26.63;4.70;;;;;;;9.26;100.00;100895.97;5004909;28;20052;-88
2024/02/03 08:55:33;;;;;;;22.63;4.60;;;;;;;9.33;100.00;100904.19;4988536;28;20028;-88
2024/02/03 08:58:20;;;;;;;25.67;4.23;;;;;;;9.23;100.00;100869.63;5008596;28;20033;-89
2024/02/03 09:00:45;;;;;;;25.13;4.70;;;;;;;9.37;100.00;100886.09;4991741;28;20324;-89
2024/02/03 09:03:10;;;;;;;21.10;5.20;;;;;;;9.31;100.00;100852.88;4996617;28;20054;-89
2024/02/03 09:05:36;;;;;;;21.83;3.85;;;;;;;9.33;100.00;100842.06;4988430;28;20041;-89
2024/02/03 09:08:02;;;;;;;25.70;5.70;;;;;;;9.33;100.00;100847.41;4998290;28;21204;-89
2024/02/03 09:10:27;;;;;;;18.27;3.72;;;;;;;9.12;100.00;100826.38;4984452;28;20026;-89
2024/02/03 09:12:53;;;;;;;25.23;5.07;;;;;;;9.24;100.00;100857.13;4990164;28;20805;-89
2024/02/03 09:15:18;;;;;;;18.97;4.17;;;;;;;9.17;100.00;100867.56;4992979;28;20030;-89
2024/02/03 09:17:43;;;;;;;18.90;3.90;;;;;;;9.34;100.00;100876.56;4992146;28;20030;-89
2024/02/03 09:20:09;;;;;;;17.40;3.33;;;;;;;9.40;100.00;100848.47;5011811;28;20042;-88
2024/02/03 09:22:35;;;;;;;24.00;4.32;;;;;;;9.45;100.00;100870.16;4993777;28;20030;-89
2024/02/03 09:25:00;;;;;;;24.10;3.87;;;;;;;9.45;100.00;100843.53;5003900;28;20033;-87
2024/02/03 09:27:25;;;;;;;14.60;3.57;;;;;;;9.43;100.00;100867.66;4991717;28;20048;-88
2024/02/03 09:29:51;;;;;;;22.23;3.23;;;;;;;9.36;100.00;100879.06;4987467;28;20126;-89
2024/02/03 09:32:16;;;;;;;22.10;4.93;;;;;;;9.28;100.00;100895.81;5007102;28;20073;-89
2024/02/03 09:34:48;;;;;;;18.67;4.60;;;;;;;9.46;100.00;100914.50;4994570;28;20034;-87
2024/02/03 09:37:13;;;;;;;15.30;3.35;;;;;;;9.55;100.00;100904.75;5005133;28;20299;-88
2024/02/03 09:39:42;;;;;;;25.25;4.53;;;;;;;9.57;100.00;100916.09;4999537;28;20041;-87
2024/02/03 09:42:08;;;;;;;25.83;4.82;;;;;;;9.41;100.00;100874.13;5000023;28;20746;-87
2024/02/03 09:44:33;;;;;;;;;;;;;;;9.70;100.00;100916.56;4997308;28;20902;-87
2024/02/03 09:46:59;;;;;;;13.35;3.75;;;;;;;9.80;100.00;100901.31;4985731;28;19913;-87
2024/02/03 09:49:24;;;;;;;18.73;3.25;;;;;;;9.63;100.00;100868.34;4991841;28;20076;-87
2024/02/03 09:51:50;;;;;;;18.53;3.70;;;;;;;9.46;100.00;100835.38;4994412;28;20028;-87
2024/02/03 09:54:16;;;;;;;16.42;4.47;;;;;;;9.52;100.00;100839.25;5008925;28;20030;-86
2024/02/03 09:56:44;;;;;;;20.48;4.47;;;;;;;9.59;100.00;100890.94;5009718;28;20037;-86
2024/02/03 09:59:10;;;;;;;14.30;3.70;;;;;;;9.53;100.00;100883.59;5008487;28;20030;-87
2024/02/03 10:01:38;;;;;;;18.58;4.07;;;;;;;9.35;100.00;100890.72;4993505;28;20084;-87
2024/02/03 10:04:04;;;;;;;19.90;3.97;;;;;;;9.49;100.00;100946.16;4985265;28;20278;-85
2024/02/03 10:06:34;;;;;;;18.70;3.90;;;;;;;9.27;100.00;100920.75;4994135;28;20034;-85
2024/02/03 10:08:59;;;;;;;19.40;4.22;;;;;;;9.41;100.00;100997.56;5008992;28;20049;-87
2024/02/03 10:11:24;;;;;;;25.33;4.10;;;;;;;9.43;100.00;100994.72;4994389;28;20459;-87
2024/02/03 10:14:02;;;;;;;17.93;3.07;;;;;;;9.65;100.00;100988.16;4993512;28;20057;-87
2024/02/03 10:16:27;;;;;;;22.05;3.67;;;;;;;9.78;100.00;100953.13;4998934;28;20048;-88
2024/02/03 10:18:53;;;;;;;12.83;3.17;;;;;;;9.87;100.00;100902.38;4990502;28;20027;-88
2024/02/03 10:21:18;;;;;;;17.30;4.17;;;;;;;10.01;100.00;100860.13;5002909;28;20059;-88
2024/02/03 10:23:52;;;;;;;19.47;4.80;;;;;;;10.81;100.00;100836.72;5011552;28;20034;-87
2024/02/03 10:26:18;;;;;;;12.43;2.42;;;;;;;11.44;100.00;100731.09;4992144;28;20042;-88
2024/02/03 10:28:44;;;;;;;13.20;3.87;;;;;;;11.17;100.00;100515.84;4988880;28;20060;-88
2024/02/03 10:31:11;;;;;;;16.45;3.42;;;;;;;11.09;100.00;100449.06;4988227;28;20119;-86
2024/02/03 10:33:37;;;;;;;13.52;3.42;;;;;;;11.55;100.00;100393.88;5003626;28;20030;-87
2024/02/03 10:36:03;;;;;;;12.02;3.50;;;;;;;11.32;100.00;100302.16;4992651;28;20029;-88
2024/02/03 10:38:31;;;;;;;17.85;3.88;;;;;;;11.83;100.00;100272.97;5004005;28;20523;-87
2024/02/03 10:40:57;;;;;;;13.77;3.70;;;;;;;12.55;100.00;100092.13;5007941;28;20025;-87
2024/02/03 10:43:24;;;;;;;20.13;3.75;;;;;;;12.73;100.00;99944.38;5003768;28;20548;-87
2024/02/03 10:45:55;;;;;;;14.63;3.03;;;;;;;12.88;100.00;99769.13;4985787;28;20046;-88
2024/02/03 10:48:24;;;;;;;15.40;3.15;;;;;;;13.07;100.00;99697.84;4988402;28;20072;-87
2024/02/03 10:50:56;;;;;;;15.63;3.83;;;;;;;13.08;100.00;99562.00;4992229;28;20029;-87
2024/02/03 10:53:28;;;;;;;9.35;2.75;;;;;;;12.53;100.00;99510.53;5009422;28;20034;-87
2024/02/03 10:55:58;;;;;;;15.50;3.25;;;;;;;11.92;100.00;99449.94;5008669;28;20022;-87
2024/02/03 10:58:26;;;;;;;17.80;3.38;;;;;;;11.47;100.00;99506.53;4988886;28;20030;-87
2024/02/03 11:00:53;;;;;;;20.42;3.33;;;;;;;11.20;100.00;99644.47;5004116;28;20018;-86
2024/02/03 11:03:20;;;;;;;33.03;4.82;;;;;;;11.64;100.00;99853.72;4992307;28;20038;-87
2024/02/03 11:05:45;;;;;;;19.08;2.97;;;;;;;12.45;100.00;99760.47;4988937;28;20441;-87
2024/02/03 11:08:12;;;;;;;12.70;3.43;;;;;;;12.51;100.00;99628.53;4991317;28;20100;-87
2024/02/03 11:10:37;;;;;;;13.63;2.92;;;;;;;13.43;100.00;99613.53;4977912;28;20057;-88
2024/02/03 11:13:23;;;;;;;16.83;3.78;;;;;;;13.44;100.00;99368.56;5002515;28;20531;-87
2024/02/03 11:15:56;;;;;;;14.90;3.30;;;;;;;13.75;100.00;99275.72;5008102;28;20026;-87